sensor_id;sensor_type;location;lat;lon;timestamp;temperature;humidity
48454;DHT22;34261;55.678;12.464;2023-08-20T00:02:05;19.80;99.90
48454;DHT22;34261;55.678;12.464;2023-08-20T00:04:34;19.80;99.90
48454;DHT22;34261;55.678;12.464;2023-08-20T00:07:01;19.90;99.90
48454;DHT22;34261;55.678;12.464;2023-08-20T00:09:27;19.80;99.90
48454;DHT22;34261;55.678;12.464;2023-08-20T00:11:53;19.80;99.90
48454;DHT22;34261;55.678;12.464;2023-08-20T00:14:19;19.80;99.90
48454;DHT22;34261;55.678;12.464;2023-08-20T00:16:45;19.90;99.90
48454;DHT22;34261;55.678;12.464;2023-08-20T00:19:11;19.90;99.90
48454;DHT22;34261;55.678;12.464;2023-08-20T00:21:41;19.90;99.90
48454;DHT22;34261;55.678;12.464;2023-08-20T00:24:08;19.90;99.90
48454;DHT22;34261;55.678;12.464;2023-08-20T00:26:34;19.90;99.90
48454;DHT22;34261;55.678;12.464;2023-08-20T00:29:00;19.90;99.90
48454;DHT22;34261;55.678;12.464;2023-08-20T00:31:25;19.90;99.90
48454;DHT22;34261;55.678;12.464;2023-08-20T00:33:51;19.90;99.90
48454;DHT22;34261;55.678;12.464;2023-08-20T00:36:16;19.90;99.90
48454;DHT22;34261;55.678;12.464;2023-08-20T00:38:45;20.00;99.90
48454;DHT22;34261;55.678;12.464;2023-08-20T00:41:11;20.00;99.90
48454;DHT22;34261;55.678;12.464;2023-08-20T00:43:36;20.00;99.90
48454;DHT22;34261;55.678;12.464;2023-08-20T00:46:02;20.00;99.90
48454;DHT22;34261;55.678;12.464;2023-08-20T00:48:29;20.00;99.90
48454;DHT22;34261;55.678;12.464;2023-08-20T00:50:54;20.00;99.90
48454;DHT22;34261;55.678;12.464;2023-08-20T00:53:20;19.90;99.90
48454;DHT22;34261;55.678;12.464;2023-08-20T00:55:46;19.90;99.90
48454;DHT22;34261;55.678;12.464;2023-08-20T00:58:12;19.90;99.90
48454;DHT22;34261;55.678;12.464;2023-08-20T01:00:37;19.80;99.90
48454;DHT22;34261;55.678;12.464;2023-08-20T01:03:03;19.90;99.90
48454;DHT22;34261;55.678;12.464;2023-08-20T01:08:32;19.80;99.90
48454;DHT22;34261;55.678;12.464;2023-08-20T01:11:24;19.80;99.90
48454;DHT22;34261;55.678;12.464;2023-08-20T01:13:54;19.90;99.90
48454;DHT22;34261;55.678;12.464;2023-08-20T01:16:20;19.90;99.90
48454;DHT22;34261;55.678;12.464;2023-08-20T01:18:47;19.90;99.90
48454;DHT22;34261;55.678;12.464;2023-08-20T01:21:38;19.90;99.90
48454;DHT22;34261;55.678;12.464;2023-08-20T01:29:43;19.80;99.90
48454;DHT22;34261;55.678;12.464;2023-08-20T01:32:10;19.70;99.90
48454;DHT22;34261;55.678;12.464;2023-08-20T01:34:37;19.70;99.90
48454;DHT22;34261;55.678;12.464;2023-08-20T01:37:02;19.70;99.90
48454;DHT22;34261;55.678;12.464;2023-08-20T01:39:28;19.70;99.90
48454;DHT22;34261;55.678;12.464;2023-08-20T01:41:54;19.70;99.90
48454;DHT22;34261;55.678;12.464;2023-08-20T01:44:19;19.60;99.90
48454;DHT22;34261;55.678;12.464;2023-08-20T01:46:45;19.70;99.90
48454;DHT22;34261;55.678;12.464;2023-08-20T01:49:10;19.70;99.90
48454;DHT22;34261;55.678;12.464;2023-08-20T01:51:36;19.70;99.90
48454;DHT22;34261;55.678;12.464;2023-08-20T01:54:02;19.70;99.90
48454;DHT22;34261;55.678;12.464;2023-08-20T01:56:28;19.60;99.90
48454;DHT22;34261;55.678;12.464;2023-08-20T01:58:53;19.60;99.90
48454;DHT22;34261;55.678;12.464;2023-08-20T02:01:19;19.50;99.90
48454;DHT22;34261;55.678;12.464;2023-08-20T02:03:44;19.50;99.90
48454;DHT22;34261;55.678;12.464;2023-08-20T02:06:10;19.50;99.90
48454;DHT22;34261;55.678;12.464;2023-08-20T02:08:35;19.50;99.90
48454;DHT22;34261;55.678;12.464;2023-08-20T02:11:02;19.50;99.90
48454;DHT22;34261;55.678;12.464;2023-08-20T02:13:28;19.50;99.90
48454;DHT22;34261;55.678;12.464;2023-08-20T02:16:04;19.50;99.90
48454;DHT22;34261;55.678;12.464;2023-08-20T02:18:30;19.50;99.90
48454;DHT22;34261;55.678;12.464;2023-08-20T02:20:56;19.50;99.90
48454;DHT22;34261;55.678;12.464;2023-08-20T02:23:22;19.50;99.90
48454;DHT22;34261;55.678;12.464;2023-08-20T02:25:48;19.60;99.90
48454;DHT22;34261;55.678;12.464;2023-08-20T02:28:14;19.50;99.90
48454;DHT22;34261;55.678;12.464;2023-08-20T02:30:45;19.50;99.90
48454;DHT22;34261;55.678;12.464;2023-08-20T02:33:11;19.60;99.90
48454;DHT22;34261;55.678;12.464;2023-08-20T02:35:37;19.50;99.90
48454;DHT22;34261;55.678;12.464;2023-08-20T02:38:04;19.50;99.90
48454;DHT22;34261;55.678;12.464;2023-08-20T02:40:30;19.40;99.90
48454;DHT22;34261;55.678;12.464;2023-08-20T02:42:56;19.40;99.90
48454;DHT22;34261;55.678;12.464;2023-08-20T02:45:22;19.40;99.90
48454;DHT22;34261;55.678;12.464;2023-08-20T02:47:48;19.40;99.90
48454;DHT22;34261;55.678;12.464;2023-08-20T02:50:14;19.50;99.90
48454;DHT22;34261;55.678;12.464;2023-08-20T02:52:41;19.50;99.90
48454;DHT22;34261;55.678;12.464;2023-08-20T02:55:09;19.50;99.90
48454;DHT22;34261;55.678;12.464;2023-08-20T02:57:35;19.50;99.90
48454;DHT22;34261;55.678;12.464;2023-08-20T03:00:00;19.50;99.90
48454;DHT22;34261;55.678;12.464;2023-08-20T03:02:26;19.50;99.90
48454;DHT22;34261;55.678;12.464;2023-08-20T03:04:51;19.50;99.90
48454;DHT22;34261;55.678;12.464;2023-08-20T03:07:18;19.50;99.90
48454;DHT22;34261;55.678;12.464;2023-08-20T03:09:44;19.50;99.90
48454;DHT22;34261;55.678;12.464;2023-08-20T03:12:09;19.50;99.90
48454;DHT22;34261;55.678;12.464;2023-08-20T03:14:35;19.50;99.90
48454;DHT22;34261;55.678;12.464;2023-08-20T03:17:00;19.50;99.90
48454;DHT22;34261;55.678;12.464;2023-08-20T03:19:26;19.50;99.90
48454;DHT22;34261;55.678;12.464;2023-08-20T03:21:58;19.40;99.90
48454;DHT22;34261;55.678;12.464;2023-08-20T03:24:23;19.50;99.90
48454;DHT22;34261;55.678;12.464;2023-08-20T03:29:52;19.40;99.90
48454;DHT22;34261;55.678;12.464;2023-08-20T03:32:18;19.40;99.90
48454;DHT22;34261;55.678;12.464;2023-08-20T03:34:44;19.40;99.90
48454;DHT22;34261;55.678;12.464;2023-08-20T03:40:13;19.20;99.90
48454;DHT22;34261;55.678;12.464;2023-08-20T03:42:39;19.30;99.90
48454;DHT22;34261;55.678;12.464;2023-08-20T03:48:27;19.40;99.90
48454;DHT22;34261;55.678;12.464;2023-08-20T04:04:24;19.30;99.90
48454;DHT22;34261;55.678;12.464;2023-08-20T04:06:53;19.20;99.90
48454;DHT22;34261;55.678;12.464;2023-08-20T04:12:41;19.30;99.90
48454;DHT22;34261;55.678;12.464;2023-08-20T04:18:29;19.30;99.90
48454;DHT22;34261;55.678;12.464;2023-08-20T04:27:02;19.40;99.90
48454;DHT22;34261;55.678;12.464;2023-08-20T04:29:27;19.40;99.90
48454;DHT22;34261;55.678;12.464;2023-08-20T04:35:15;19.40;99.90
48454;DHT22;34261;55.678;12.464;2023-08-20T04:37:41;19.30;99.90
48454;DHT22;34261;55.678;12.464;2023-08-20T04:40:07;19.30;99.90
48454;DHT22;34261;55.678;12.464;2023-08-20T04:42:33;19.30;99.90
48454;DHT22;34261;55.678;12.464;2023-08-20T04:48:02;19.40;99.90
48454;DHT22;34261;55.678;12.464;2023-08-20T04:53:31;19.40;99.90
48454;DHT22;34261;55.678;12.464;2023-08-20T04:56:04;19.40;99.90
48454;DHT22;34261;55.678;12.464;2023-08-20T05:01:52;19.40;99.90
48454;DHT22;34261;55.678;12.464;2023-08-20T05:04:17;19.30;99.90
48454;DHT22;34261;55.678;12.464;2023-08-20T05:06:44;19.30;99.90
48454;DHT22;34261;55.678;12.464;2023-08-20T05:09:11;19.30;99.90
48454;DHT22;34261;55.678;12.464;2023-08-20T05:11:37;19.20;99.90
48454;DHT22;34261;55.678;12.464;2023-08-20T05:14:04;19.30;99.90
48454;DHT22;34261;55.678;12.464;2023-08-20T05:16:29;19.30;99.90
48454;DHT22;34261;55.678;12.464;2023-08-20T05:18:55;19.40;99.90
48454;DHT22;34261;55.678;12.464;2023-08-20T05:21:22;19.40;99.90
48454;DHT22;34261;55.678;12.464;2023-08-20T05:23:48;19.40;99.90
48454;DHT22;34261;55.678;12.464;2023-08-20T05:26:13;19.40;99.90
48454;DHT22;34261;55.678;12.464;2023-08-20T05:28:40;19.50;99.90
48454;DHT22;34261;55.678;12.464;2023-08-20T05:31:09;19.40;99.90
48454;DHT22;34261;55.678;12.464;2023-08-20T05:33:36;19.40;99.90
48454;DHT22;34261;55.678;12.464;2023-08-20T05:36:02;19.40;99.90
48454;DHT22;34261;55.678;12.464;2023-08-20T05:38:29;19.50;99.90
48454;DHT22;34261;55.678;12.464;2023-08-20T05:40:54;19.50;99.90
48454;DHT22;34261;55.678;12.464;2023-08-20T05:43:25;19.50;99.90
48454;DHT22;34261;55.678;12.464;2023-08-20T05:45:53;19.50;99.90
48454;DHT22;34261;55.678;12.464;2023-08-20T05:48:18;19.50;99.90
48454;DHT22;34261;55.678;12.464;2023-08-20T05:50:44;19.50;99.90
48454;DHT22;34261;55.678;12.464;2023-08-20T05:53:11;19.50;99.90
48454;DHT22;34261;55.678;12.464;2023-08-20T05:55:37;19.50;99.90
48454;DHT22;34261;55.678;12.464;2023-08-20T05:58:03;19.50;99.90
48454;DHT22;34261;55.678;12.464;2023-08-20T06:00:33;19.50;99.90
48454;DHT22;34261;55.678;12.464;2023-08-20T06:02:59;19.60;99.90
48454;DHT22;34261;55.678;12.464;2023-08-20T06:05:25;19.60;99.90
48454;DHT22;34261;55.678;12.464;2023-08-20T06:07:51;19.60;99.90
48454;DHT22;34261;55.678;12.464;2023-08-20T06:10:16;19.70;99.90
48454;DHT22;34261;55.678;12.464;2023-08-20T06:12:42;19.80;99.90
48454;DHT22;34261;55.678;12.464;2023-08-20T06:15:09;19.80;99.90
48454;DHT22;34261;55.678;12.464;2023-08-20T06:17:35;19.90;99.90
48454;DHT22;34261;55.678;12.464;2023-08-20T06:20:03;20.00;99.90
48454;DHT22;34261;55.678;12.464;2023-08-20T06:22:32;20.00;99.90
48454;DHT22;34261;55.678;12.464;2023-08-20T06:24:58;20.00;99.90
48454;DHT22;34261;55.678;12.464;2023-08-20T06:27:23;20.00;99.90
48454;DHT22;34261;55.678;12.464;2023-08-20T06:29:49;20.00;99.90
48454;DHT22;34261;55.678;12.464;2023-08-20T06:32:15;20.00;99.90
48454;DHT22;34261;55.678;12.464;2023-08-20T06:34:41;20.00;99.90
48454;DHT22;34261;55.678;12.464;2023-08-20T06:37:06;20.00;99.90
48454;DHT22;34261;55.678;12.464;2023-08-20T06:39:32;20.00;99.90
48454;DHT22;34261;55.678;12.464;2023-08-20T06:41:58;20.00;99.90
48454;DHT22;34261;55.678;12.464;2023-08-20T06:44:27;20.10;99.90
48454;DHT22;34261;55.678;12.464;2023-08-20T06:46:54;20.20;99.90
48454;DHT22;34261;55.678;12.464;2023-08-20T06:49:20;20.20;99.90
48454;DHT22;34261;55.678;12.464;2023-08-20T06:51:46;20.20;99.90
48454;DHT22;34261;55.678;12.464;2023-08-20T06:54:12;20.30;99.90
48454;DHT22;34261;55.678;12.464;2023-08-20T06:56:38;20.40;99.90
48454;DHT22;34261;55.678;12.464;2023-08-20T06:59:04;20.40;99.90
48454;DHT22;34261;55.678;12.464;2023-08-20T07:01:31;20.40;99.90
48454;DHT22;34261;55.678;12.464;2023-08-20T07:03:57;20.40;99.90
48454;DHT22;34261;55.678;12.464;2023-08-20T07:06:23;20.50;99.90
48454;DHT22;34261;55.678;12.464;2023-08-20T07:08:51;20.50;99.90
48454;DHT22;34261;55.678;12.464;2023-08-20T07:11:17;20.60;99.90
48454;DHT22;34261;55.678;12.464;2023-08-20T07:13:43;20.60;99.90
48454;DHT22;34261;55.678;12.464;2023-08-20T07:16:09;20.60;99.90
48454;DHT22;34261;55.678;12.464;2023-08-20T07:18:37;20.70;99.90
48454;DHT22;34261;55.678;12.464;2023-08-20T07:21:03;20.80;99.90
48454;DHT22;34261;55.678;12.464;2023-08-20T07:23:29;20.90;99.90
48454;DHT22;34261;55.678;12.464;2023-08-20T07:26:08;20.80;99.90
48454;DHT22;34261;55.678;12.464;2023-08-20T07:28:37;20.70;99.90
48454;DHT22;34261;55.678;12.464;2023-08-20T07:31:28;20.70;99.90
48454;DHT22;34261;55.678;12.464;2023-08-20T07:33:55;20.70;99.90
48454;DHT22;34261;55.678;12.464;2023-08-20T07:36:24;20.60;99.90
48454;DHT22;34261;55.678;12.464;2023-08-20T07:38:53;20.60;99.90
48454;DHT22;34261;55.678;12.464;2023-08-20T07:41:19;20.60;99.90
48454;DHT22;34261;55.678;12.464;2023-08-20T07:43:46;20.60;99.90
48454;DHT22;34261;55.678;12.464;2023-08-20T07:46:12;20.50;99.90
48454;DHT22;34261;55.678;12.464;2023-08-20T07:48:38;20.60;99.90
48454;DHT22;34261;55.678;12.464;2023-08-20T07:51:04;20.60;99.90
48454;DHT22;34261;55.678;12.464;2023-08-20T07:53:34;20.70;99.90
48454;DHT22;34261;55.678;12.464;2023-08-20T07:56:02;20.70;99.90
48454;DHT22;34261;55.678;12.464;2023-08-20T07:58:31;20.70;99.90
48454;DHT22;34261;55.678;12.464;2023-08-20T08:01:00;20.70;99.90
48454;DHT22;34261;55.678;12.464;2023-08-20T08:03:26;20.70;99.90
48454;DHT22;34261;55.678;12.464;2023-08-20T08:05:57;20.70;99.90
48454;DHT22;34261;55.678;12.464;2023-08-20T08:08:24;20.70;99.90
48454;DHT22;34261;55.678;12.464;2023-08-20T08:10:50;20.70;99.90
48454;DHT22;34261;55.678;12.464;2023-08-20T08:13:21;20.70;99.90
48454;DHT22;34261;55.678;12.464;2023-08-20T08:15:48;20.70;99.90
48454;DHT22;34261;55.678;12.464;2023-08-20T08:18:18;20.60;99.90
48454;DHT22;34261;55.678;12.464;2023-08-20T08:20:44;20.70;99.90
48454;DHT22;34261;55.678;12.464;2023-08-20T08:23:10;20.60;99.90
48454;DHT22;34261;55.678;12.464;2023-08-20T08:25:36;20.60;99.90
48454;DHT22;34261;55.678;12.464;2023-08-20T08:28:03;20.50;99.90
48454;DHT22;34261;55.678;12.464;2023-08-20T08:30:29;20.50;99.90
48454;DHT22;34261;55.678;12.464;2023-08-20T08:32:55;20.50;99.90
48454;DHT22;34261;55.678;12.464;2023-08-20T08:35:22;20.50;99.90
48454;DHT22;34261;55.678;12.464;2023-08-20T08:37:48;20.50;99.90
48454;DHT22;34261;55.678;12.464;2023-08-20T08:40:14;20.50;99.90
48454;DHT22;34261;55.678;12.464;2023-08-20T08:42:41;20.50;99.90
48454;DHT22;34261;55.678;12.464;2023-08-20T08:45:09;20.50;99.90
48454;DHT22;34261;55.678;12.464;2023-08-20T08:47:36;20.50;99.90
48454;DHT22;34261;55.678;12.464;2023-08-20T08:50:02;20.50;99.90
48454;DHT22;34261;55.678;12.464;2023-08-20T08:52:28;20.50;99.90
48454;DHT22;34261;55.678;12.464;2023-08-20T08:54:54;20.50;99.90
48454;DHT22;34261;55.678;12.464;2023-08-20T08:57:19;20.50;99.90
48454;DHT22;34261;55.678;12.464;2023-08-20T08:59:47;20.50;99.90
48454;DHT22;34261;55.678;12.464;2023-08-20T09:02:13;20.50;99.90
48454;DHT22;34261;55.678;12.464;2023-08-20T09:04:42;20.60;99.90
48454;DHT22;34261;55.678;12.464;2023-08-20T09:07:12;20.60;99.90
48454;DHT22;34261;55.678;12.464;2023-08-20T09:09:42;20.50;99.90
48454;DHT22;34261;55.678;12.464;2023-08-20T09:12:19;20.70;99.90
48454;DHT22;34261;55.678;12.464;2023-08-20T09:14:47;20.80;99.90
48454;DHT22;34261;55.678;12.464;2023-08-20T09:17:16;20.90;99.90
48454;DHT22;34261;55.678;12.464;2023-08-20T09:19:44;21.00;99.90
48454;DHT22;34261;55.678;12.464;2023-08-20T09:22:14;21.10;99.90
48454;DHT22;34261;55.678;12.464;2023-08-20T09:24:52;21.30;99.90
48454;DHT22;34261;55.678;12.464;2023-08-20T09:27:18;21.60;99.90
48454;DHT22;34261;55.678;12.464;2023-08-20T09:29:49;21.80;99.90
48454;DHT22;34261;55.678;12.464;2023-08-20T09:32:26;22.10;99.90
48454;DHT22;34261;55.678;12.464;2023-08-20T09:34:53;22.30;99.90
48454;DHT22;34261;55.678;12.464;2023-08-20T09:37:24;22.60;99.90
48454;DHT22;34261;55.678;12.464;2023-08-20T09:39:58;22.80;99.90
48454;DHT22;34261;55.678;12.464;2023-08-20T09:42:32;23.10;99.90
48454;DHT22;34261;55.678;12.464;2023-08-20T09:45:08;23.30;99.90
48454;DHT22;34261;55.678;12.464;2023-08-20T09:48:02;23.40;99.90
48454;DHT22;34261;55.678;12.464;2023-08-20T09:50:43;23.60;99.90
48454;DHT22;34261;55.678;12.464;2023-08-20T09:53:30;23.80;99.90
48454;DHT22;34261;55.678;12.464;2023-08-20T09:56:31;23.70;99.90
48454;DHT22;34261;55.678;12.464;2023-08-20T09:59:02;23.90;99.90
48454;DHT22;34261;55.678;12.464;2023-08-20T10:01:30;23.70;99.90
48454;DHT22;34261;55.678;12.464;2023-08-20T10:03:58;24.10;99.90
48454;DHT22;34261;55.678;12.464;2023-08-20T10:06:33;24.30;99.90
48454;DHT22;34261;55.678;12.464;2023-08-20T10:09:06;24.10;99.90
48454;DHT22;34261;55.678;12.464;2023-08-20T10:11:35;24.00;99.90
48454;DHT22;34261;55.678;12.464;2023-08-20T10:14:05;23.90;99.90
48454;DHT22;34261;55.678;12.464;2023-08-20T10:16:41;24.10;99.90
48454;DHT22;34261;55.678;12.464;2023-08-20T10:19:36;23.90;99.90
48454;DHT22;34261;55.678;12.464;2023-08-20T10:22:04;23.90;99.90
48454;DHT22;34261;55.678;12.464;2023-08-20T10:24:51;24.10;99.90
48454;DHT22;34261;55.678;12.464;2023-08-20T10:27:26;24.20;99.90
48454;DHT22;34261;55.678;12.464;2023-08-20T10:29:54;24.30;99.90
48454;DHT22;34261;55.678;12.464;2023-08-20T10:32:20;24.30;99.90
48454;DHT22;34261;55.678;12.464;2023-08-20T10:34:57;24.60;99.90
48454;DHT22;34261;55.678;12.464;2023-08-20T10:37:27;24.60;99.90
48454;DHT22;34261;55.678;12.464;2023-08-20T10:39:56;24.80;99.90
48454;DHT22;34261;55.678;12.464;2023-08-20T10:42:26;25.20;99.90
48454;DHT22;34261;55.678;12.464;2023-08-20T10:45:05;25.40;99.90
48454;DHT22;34261;55.678;12.464;2023-08-20T10:47:41;25.40;99.90
48454;DHT22;34261;55.678;12.464;2023-08-20T10:50:08;25.10;99.90
48454;DHT22;34261;55.678;12.464;2023-08-20T10:52:50;25.40;99.90
48454;DHT22;34261;55.678;12.464;2023-08-20T10:55:23;25.60;99.90
48454;DHT22;34261;55.678;12.464;2023-08-20T10:57:56;25.90;99.90
48454;DHT22;34261;55.678;12.464;2023-08-20T11:00:22;26.10;99.90
48454;DHT22;34261;55.678;12.464;2023-08-20T11:02:52;26.00;99.90
48454;DHT22;34261;55.678;12.464;2023-08-20T11:05:19;25.90;99.90
48454;DHT22;34261;55.678;12.464;2023-08-20T11:07:47;26.00;99.90
48454;DHT22;34261;55.678;12.464;2023-08-20T11:10:20;25.80;99.90
48454;DHT22;34261;55.678;12.464;2023-08-20T11:12:46;25.70;99.90
48454;DHT22;34261;55.678;12.464;2023-08-20T11:16:01;25.90;99.90
48454;DHT22;34261;55.678;12.464;2023-08-20T11:18:42;26.00;99.90
48454;DHT22;34261;55.678;12.464;2023-08-20T11:21:08;26.10;99.90
48454;DHT22;34261;55.678;12.464;2023-08-20T11:23:35;26.30;99.90
48454;DHT22;34261;55.678;12.464;2023-08-20T11:26:01;26.70;99.90
48454;DHT22;34261;55.678;12.464;2023-08-20T11:28:28;26.70;99.90
48454;DHT22;34261;55.678;12.464;2023-08-20T11:30:54;26.50;99.90
48454;DHT22;34261;55.678;12.464;2023-08-20T11:33:23;26.00;99.90
48454;DHT22;34261;55.678;12.464;2023-08-20T11:35:49;25.60;99.90
48454;DHT22;34261;55.678;12.464;2023-08-20T11:38:15;25.30;99.90
48454;DHT22;34261;55.678;12.464;2023-08-20T11:40:41;25.40;99.90
48454;DHT22;34261;55.678;12.464;2023-08-20T11:43:06;25.50;99.90
48454;DHT22;34261;55.678;12.464;2023-08-20T11:45:33;25.90;99.90
48454;DHT22;34261;55.678;12.464;2023-08-20T11:48:09;25.90;99.90
48454;DHT22;34261;55.678;12.464;2023-08-20T11:50:35;26.20;99.90
48454;DHT22;34261;55.678;12.464;2023-08-20T11:53:03;26.10;99.90
48454;DHT22;34261;55.678;12.464;2023-08-20T11:55:30;25.90;99.90
48454;DHT22;34261;55.678;12.464;2023-08-20T11:57:55;25.60;99.90
48454;DHT22;34261;55.678;12.464;2023-08-20T12:00:29;25.30;99.90
48454;DHT22;34261;55.678;12.464;2023-08-20T12:02:55;25.30;99.90
48454;DHT22;34261;55.678;12.464;2023-08-20T12:05:31;25.40;99.90
48454;DHT22;34261;55.678;12.464;2023-08-20T12:08:04;25.60;99.90
48454;DHT22;34261;55.678;12.464;2023-08-20T12:10:31;25.50;99.90
48454;DHT22;34261;55.678;12.464;2023-08-20T12:13:02;25.90;99.90
48454;DHT22;34261;55.678;12.464;2023-08-20T12:15:28;25.90;99.90
48454;DHT22;34261;55.678;12.464;2023-08-20T12:18:04;25.70;99.90
48454;DHT22;34261;55.678;12.464;2023-08-20T12:20:33;26.00;99.90
48454;DHT22;34261;55.678;12.464;2023-08-20T12:23:05;26.10;99.90
48454;DHT22;34261;55.678;12.464;2023-08-20T12:25:35;25.80;99.90
48454;DHT22;34261;55.678;12.464;2023-08-20T12:28:04;25.90;99.90
48454;DHT22;34261;55.678;12.464;2023-08-20T12:30:31;26.10;99.90
48454;DHT22;34261;55.678;12.464;2023-08-20T12:32:57;26.50;99.90
48454;DHT22;34261;55.678;12.464;2023-08-20T12:35:23;27.00;99.90
48454;DHT22;34261;55.678;12.464;2023-08-20T12:37:48;27.40;99.90
48454;DHT22;34261;55.678;12.464;2023-08-20T12:40:14;27.80;99.90
48454;DHT22;34261;55.678;12.464;2023-08-20T12:42:40;27.30;99.90
48454;DHT22;34261;55.678;12.464;2023-08-20T12:45:09;26.70;99.90
48454;DHT22;34261;55.678;12.464;2023-08-20T12:47:36;26.80;99.90
48454;DHT22;34261;55.678;12.464;2023-08-20T12:50:02;26.10;99.90
48454;DHT22;34261;55.678;12.464;2023-08-20T12:52:29;26.30;99.90
48454;DHT22;34261;55.678;12.464;2023-08-20T12:54:55;26.80;99.90
48454;DHT22;34261;55.678;12.464;2023-08-20T12:57:21;27.20;99.90
48454;DHT22;34261;55.678;12.464;2023-08-20T12:59:47;27.60;99.90
48454;DHT22;34261;55.678;12.464;2023-08-20T13:02:12;28.00;99.90
48454;DHT22;34261;55.678;12.464;2023-08-20T13:04:38;28.20;99.90
48454;DHT22;34261;55.678;12.464;2023-08-20T13:07:04;28.30;99.90
48454;DHT22;34261;55.678;12.464;2023-08-20T13:09:30;28.00;99.70
48454;DHT22;34261;55.678;12.464;2023-08-20T13:11:57;28.50;99.90
48454;DHT22;34261;55.678;12.464;2023-08-20T13:14:23;28.30;99.70
48454;DHT22;34261;55.678;12.464;2023-08-20T13:16:49;28.10;99.90
48454;DHT22;34261;55.678;12.464;2023-08-20T13:19:15;28.50;99.90
48454;DHT22;34261;55.678;12.464;2023-08-20T13:21:40;28.60;99.90
48454;DHT22;34261;55.678;12.464;2023-08-20T13:24:06;28.80;99.90
48454;DHT22;34261;55.678;12.464;2023-08-20T13:26:32;28.90;99.90
48454;DHT22;34261;55.678;12.464;2023-08-20T13:28:58;28.80;99.70
48454;DHT22;34261;55.678;12.464;2023-08-20T13:31:23;28.50;99.50
48454;DHT22;34261;55.678;12.464;2023-08-20T13:33:49;28.70;98.90
48454;DHT22;34261;55.678;12.464;2023-08-20T13:36:15;28.70;99.80
48454;DHT22;34261;55.678;12.464;2023-08-20T13:38:41;28.70;99.40
48454;DHT22;34261;55.678;12.464;2023-08-20T13:41:07;28.90;99.80
48454;DHT22;34261;55.678;12.464;2023-08-20T13:43:32;29.00;99.40
48454;DHT22;34261;55.678;12.464;2023-08-20T13:45:58;29.00;99.30
48454;DHT22;34261;55.678;12.464;2023-08-20T13:48:24;29.10;98.00
48454;DHT22;34261;55.678;12.464;2023-08-20T13:50:49;28.60;98.70
48454;DHT22;34261;55.678;12.464;2023-08-20T13:53:15;28.50;99.40
48454;DHT22;34261;55.678;12.464;2023-08-20T13:55:41;28.50;99.10
48454;DHT22;34261;55.678;12.464;2023-08-20T13:58:06;28.70;99.00
48454;DHT22;34261;55.678;12.464;2023-08-20T14:00:32;28.80;99.30
48454;DHT22;34261;55.678;12.464;2023-08-20T14:02:58;29.10;98.60
48454;DHT22;34261;55.678;12.464;2023-08-20T14:05:24;29.50;98.40
48454;DHT22;34261;55.678;12.464;2023-08-20T14:07:49;29.60;98.90
48454;DHT22;34261;55.678;12.464;2023-08-20T14:10:15;29.40;99.00
48454;DHT22;34261;55.678;12.464;2023-08-20T14:12:41;28.60;97.40
48454;DHT22;34261;55.678;12.464;2023-08-20T14:15:07;28.00;97.60
48454;DHT22;34261;55.678;12.464;2023-08-20T14:17:33;27.40;99.00
48454;DHT22;34261;55.678;12.464;2023-08-20T14:19:59;27.00;98.90
48454;DHT22;34261;55.678;12.464;2023-08-20T14:22:24;26.90;99.40
48454;DHT22;34261;55.678;12.464;2023-08-20T14:24:50;27.10;99.90
48454;DHT22;34261;55.678;12.464;2023-08-20T14:27:16;27.20;99.10
48454;DHT22;34261;55.678;12.464;2023-08-20T14:29:42;26.80;98.90
48454;DHT22;34261;55.678;12.464;2023-08-20T14:32:08;26.70;99.80
48454;DHT22;34261;55.678;12.464;2023-08-20T14:34:34;26.30;99.90
48454;DHT22;34261;55.678;12.464;2023-08-20T14:37:00;26.00;99.90
48454;DHT22;34261;55.678;12.464;2023-08-20T14:39:25;26.10;99.90
48454;DHT22;34261;55.678;12.464;2023-08-20T14:41:51;26.00;99.90
48454;DHT22;34261;55.678;12.464;2023-08-20T14:44:16;25.90;99.90
48454;DHT22;34261;55.678;12.464;2023-08-20T14:46:42;25.90;99.90
48454;DHT22;34261;55.678;12.464;2023-08-20T14:49:08;25.80;99.90
48454;DHT22;34261;55.678;12.464;2023-08-20T14:51:34;25.80;99.90
48454;DHT22;34261;55.678;12.464;2023-08-20T14:54:00;25.60;99.90
48454;DHT22;34261;55.678;12.464;2023-08-20T14:56:25;25.80;99.90
48454;DHT22;34261;55.678;12.464;2023-08-20T14:58:51;26.20;99.90
48454;DHT22;34261;55.678;12.464;2023-08-20T15:01:16;25.90;99.90
48454;DHT22;34261;55.678;12.464;2023-08-20T15:03:43;25.90;99.90
48454;DHT22;34261;55.678;12.464;2023-08-20T15:06:08;25.80;99.90
48454;DHT22;34261;55.678;12.464;2023-08-20T15:08:34;25.80;99.90
48454;DHT22;34261;55.678;12.464;2023-08-20T15:11:01;25.60;99.90
48454;DHT22;34261;55.678;12.464;2023-08-20T15:13:31;25.40;99.90
48454;DHT22;34261;55.678;12.464;2023-08-20T15:15:57;25.70;99.90
48454;DHT22;34261;55.678;12.464;2023-08-20T15:18:23;25.60;99.90
48454;DHT22;34261;55.678;12.464;2023-08-20T15:20:59;25.60;99.90
48454;DHT22;34261;55.678;12.464;2023-08-20T15:23:26;25.50;99.90
48454;DHT22;34261;55.678;12.464;2023-08-20T15:25:53;25.50;99.90
48454;DHT22;34261;55.678;12.464;2023-08-20T15:28:20;25.40;99.90
48454;DHT22;34261;55.678;12.464;2023-08-20T15:30:45;25.70;99.90
48454;DHT22;34261;55.678;12.464;2023-08-20T15:33:11;25.70;99.90
48454;DHT22;34261;55.678;12.464;2023-08-20T15:35:37;25.70;99.90
48454;DHT22;34261;55.678;12.464;2023-08-20T15:38:02;25.60;99.90
48454;DHT22;34261;55.678;12.464;2023-08-20T15:40:28;25.60;99.90
48454;DHT22;34261;55.678;12.464;2023-08-20T15:42:54;25.60;99.90
48454;DHT22;34261;55.678;12.464;2023-08-20T15:45:19;25.40;99.90
48454;DHT22;34261;55.678;12.464;2023-08-20T15:47:45;25.40;99.90
48454;DHT22;34261;55.678;12.464;2023-08-20T15:50:10;25.30;99.90
48454;DHT22;34261;55.678;12.464;2023-08-20T15:52:36;25.30;99.90
48454;DHT22;34261;55.678;12.464;2023-08-20T15:55:02;25.30;99.90
48454;DHT22;34261;55.678;12.464;2023-08-20T15:57:29;25.30;99.90
48454;DHT22;34261;55.678;12.464;2023-08-20T15:59:55;25.10;99.90
48454;DHT22;34261;55.678;12.464;2023-08-20T16:02:20;25.10;99.90
48454;DHT22;34261;55.678;12.464;2023-08-20T16:04:46;25.00;99.90
48454;DHT22;34261;55.678;12.464;2023-08-20T16:07:12;25.10;99.90
48454;DHT22;34261;55.678;12.464;2023-08-20T16:09:37;25.00;99.90
48454;DHT22;34261;55.678;12.464;2023-08-20T16:12:04;25.00;99.90
48454;DHT22;34261;55.678;12.464;2023-08-20T16:14:30;25.00;99.90
48454;DHT22;34261;55.678;12.464;2023-08-20T16:16:55;25.00;99.90